NCAR-RAP Real-Time Weather Data

Output produced by METARs form (16 August 2018  19:23 UTC)
found at http://weather.rap.ucar.edu/surface/
 
Conditions at: KSPG observed 16 August 2018  18:53 UTC
Temperature: 32.8°C (91°F)
Dewpoint: 22.2°C (72°F) [RH = 54%]
Pressure (altimeter): 30.13 inches Hg (1020.4 mb)
[Sea-level pressure: 1020.1 mb]
Winds: from the SSE (160 degrees) at 7 MPH (6 knots; 3.1 m/s)
Visibility: 10 or more miles (16+ km)
Ceiling: at least 12,000 feet AGL
Clouds: sky clear below 12,000 feet AGL
Present Weather: no significant weather observed at this time
KSPG 161853Z 16006KT 10SM CLR 33/22 A3013 RMK AO2 SLP201 T03280222

Conditions at: KSPG observed 16 August 2018  17:53 UTC
Temperature: 32.2°C (90°F)
Dewpoint: 22.8°C (73°F) [RH = 58%]
Pressure (altimeter): 30.14 inches Hg (1020.7 mb)
[Sea-level pressure: 1020.5 mb]
Winds: from the SE (130 degrees) at 5 MPH (4 knots; 2.1 m/s)
Visibility: 10 or more miles (16+ km)
Ceiling: at least 12,000 feet AGL
Clouds: sky clear below 12,000 feet AGL
Present Weather: no significant weather observed at this time
KSPG 161753Z 13004KT 10SM CLR 32/23 A3014 RMK AO2 SLP205 T03220228 10322 20267 58003

Conditions at: KSPG observed 16 August 2018  16:53 UTC
Temperature: 31.7°C (89°F)
Dewpoint: 23.3°C (74°F) [RH = 61%]
Pressure (altimeter): 30.15 inches Hg (1021.1 mb)
[Sea-level pressure: 1020.8 mb]
Winds: from the SE (140 degrees) at 7 MPH (6 knots; 3.1 m/s)
Visibility: 10 or more miles (16+ km)
Ceiling: at least 12,000 feet AGL
Clouds: sky clear below 12,000 feet AGL
Present Weather: no significant weather observed at this time
KSPG 161653Z 14006KT 10SM CLR 32/23 A3015 RMK AO2 SLP208 T03170233

Conditions at: KSPG observed 16 August 2018  15:53 UTC
Temperature: 31.1°C (88°F)
Dewpoint: 23.9°C (75°F) [RH = 66%]
Pressure (altimeter): 30.15 inches Hg (1021.1 mb)
[Sea-level pressure: 1021.0 mb]
Winds: from the SSE (150 degrees) at 9 MPH (8 knots; 4.2 m/s)
Visibility: 10 or more miles (16+ km)
Ceiling: at least 12,000 feet AGL
Clouds: sky clear below 12,000 feet AGL
Present Weather: no significant weather observed at this time
KSPG 161553Z 15008KT 10SM CLR 31/24 A3015 RMK AO2 SLP210 T03110239

Conditions at: KSPG observed 16 August 2018  14:53 UTC
Temperature: 30.0°C (86°F)
Dewpoint: 25.0°C (77°F) [RH = 75%]
Pressure (altimeter): 30.15 inches Hg (1021.1 mb)
[Sea-level pressure: 1020.8 mb]
Winds: from the SSE (150 degrees) at 13 MPH (11 knots; 5.7 m/s)
Visibility: 10 or more miles (16+ km)
Ceiling: at least 12,000 feet AGL
Clouds: few clouds at 1800 feet AGL
Present Weather: no significant weather observed at this time
KSPG 161453Z 15011KT 10SM FEW018 30/25 A3015 RMK AO2 SLP208 T03000250 51009

Conditions at: KSPG observed 16 August 2018  13:53 UTC
Temperature: 28.3°C (83°F)
Dewpoint: 25.0°C (77°F) [RH = 82%]
Pressure (altimeter): 30.14 inches Hg (1020.7 mb)
[Sea-level pressure: 1020.6 mb]
Winds: from the ESE (120 degrees) at 7 MPH (6 knots; 3.1 m/s)
Visibility: 10 or more miles (16+ km)
Ceiling: at least 12,000 feet AGL
Clouds: sky clear below 12,000 feet AGL
Present Weather: no significant weather observed at this time
KSPG 161353Z 12006KT 10SM CLR 28/25 A3014 RMK AO2 SLP206 T02830250

Conditions at: KSPG observed 16 August 2018  12:53 UTC
Temperature: 27.2°C (81°F)
Dewpoint: 24.4°C (76°F) [RH = 85%]
Pressure (altimeter): 30.13 inches Hg (1020.4 mb)
[Sea-level pressure: 1020.2 mb]
Winds: from the SE (130 degrees) at 10 MPH (9 knots; 4.7 m/s)
Visibility: 10 or more miles (16+ km)
Ceiling: at least 12,000 feet AGL
Clouds: sky clear below 12,000 feet AGL
Present Weather: no significant weather observed at this time
KSPG 161253Z 13009KT 10SM CLR 27/24 A3013 RMK AO2 SLP202 T02720244

Conditions at: KSPG observed 16 August 2018  11:53 UTC
Temperature: 27.2°C (81°F)
Dewpoint: 23.3°C (74°F) [RH = 79%]
Pressure (altimeter): 30.12 inches Hg (1020.1 mb)
[Sea-level pressure: 1019.9 mb]
Winds: from the SE (130 degrees) at 8 MPH (7 knots; 3.6 m/s)
Visibility: 10 or more miles (16+ km)
Ceiling: at least 12,000 feet AGL
Clouds: sky clear below 12,000 feet AGL
Present Weather: no significant weather observed at this time
KSPG 161153Z 13007KT 10SM CLR 27/23 A3012 RMK AO2 SLP199 T02720233 10272 20261 53016

Conditions at: KSPG observed 16 August 2018  10:53 UTC
Temperature: 26.7°C (80°F)
Dewpoint: 22.8°C (73°F) [RH = 79%]
Pressure (altimeter): 30.09 inches Hg (1019.0 mb)
[Sea-level pressure: 1019.0 mb]
Winds: from the SSE (150 degrees) at 9 MPH (8 knots; 4.2 m/s)
Visibility: 10 or more miles (16+ km)
Ceiling: at least 12,000 feet AGL
Clouds: sky clear below 12,000 feet AGL
Present Weather: no significant weather observed at this time
KSPG 161053Z 15008KT 10SM CLR 27/23 A3009 RMK AO2 SLP190 T02670228

Conditions at: KSPG observed 16 August 2018  09:53 UTC
Temperature: 26.1°C (79°F)
Dewpoint: 22.8°C (73°F) [RH = 82%]
Pressure (altimeter): 30.08 inches Hg (1018.7 mb)
[Sea-level pressure: 1018.6 mb]
Winds: from the ESE (110 degrees) at 7 MPH (6 knots; 3.1 m/s)
Visibility: 10 or more miles (16+ km)
Ceiling: at least 12,000 feet AGL
Clouds: sky clear below 12,000 feet AGL
Present Weather: automated observation with no human augmentation;
there may or may not be significant weather present at this time
KSPG 160953Z AUTO 11006KT 10SM CLR 26/23 A3008 RMK AO2 SLP186 T02610228

Conditions at: KSPG observed 16 August 2018  08:53 UTC
Temperature: 26.1°C (79°F)
Dewpoint: 22.8°C (73°F) [RH = 82%]
Pressure (altimeter): 30.07 inches Hg (1018.4 mb)
[Sea-level pressure: 1018.3 mb]
Winds: from the SE (140 degrees) at 9 MPH (8 knots; 4.2 m/s)
Visibility: 10 or more miles (16+ km)
Ceiling: 8500 feet AGL
Clouds: broken clouds at 8500 feet AGL
Present Weather: no significant weather observed at this time
KSPG 160853Z 14008KT 10SM BKN085 26/23 A3007 RMK AO2 SLP183 T02610228 56013

Conditions at: KSPG observed 16 August 2018  07:53 UTC
Temperature: 26.1°C (79°F)
Dewpoint: 22.8°C (73°F) [RH = 82%]
Pressure (altimeter): 30.08 inches Hg (1018.7 mb)
[Sea-level pressure: 1018.4 mb]
Winds: from the SE (130 degrees) at 10 MPH (9 knots; 4.7 m/s)
Visibility: 10 or more miles (16+ km)
Ceiling: at least 12,000 feet AGL
Clouds: sky clear below 12,000 feet AGL
Present Weather: no significant weather observed at this time
KSPG 160753Z 13009KT 10SM CLR 26/23 A3008 RMK AO2 SLP184 T02610228

Conditions at: KSPG observed 16 August 2018  06:53 UTC
Temperature: 26.1°C (79°F)
Dewpoint: 23.3°C (74°F) [RH = 85%]
Pressure (altimeter): 30.07 inches Hg (1018.4 mb)
[Sea-level pressure: 1018.2 mb]
Winds: from the E (100 degrees) at 9 MPH (8 knots; 4.2 m/s)
Visibility: 10 or more miles (16+ km)
Ceiling: at least 12,000 feet AGL
Clouds: few clouds at 6500 feet AGL
Present Weather: no significant weather observed at this time
KSPG 160653Z 10008KT 10SM FEW065 26/23 A3007 RMK AO2 SLP182 T02610233

Conditions at: KSPG observed 16 August 2018  05:53 UTC
Temperature: 27.2°C (81°F)
Dewpoint: 23.3°C (74°F) [RH = 79%]
Pressure (altimeter): 30.11 inches Hg (1019.7 mb)
[Sea-level pressure: 1019.5 mb]
Winds: from the SE (130 degrees) at 15 MPH (13 knots; 6.8 m/s)
Visibility: 10 or more miles (16+ km)
Ceiling: 7000 feet AGL
Clouds: few clouds at 5500 feet AGL
broken clouds at 7000 feet AGL
Present Weather: no significant weather observed at this time
KSPG 160553Z 13013KT 10SM FEW055 BKN070 27/23 A3011 RMK AO2 LTG DSNT NE SLP195 T02720233 10283 20272 50001

Conditions at: KSPG observed 16 August 2018  04:53 UTC
Temperature: 27.2°C (81°F)
Dewpoint: 23.3°C (74°F) [RH = 79%]
Pressure (altimeter): 30.11 inches Hg (1019.7 mb)
[Sea-level pressure: 1019.7 mb]
Winds: from the E (80 degrees) at 8 MPH (7 knots; 3.6 m/s)
Visibility: 10 or more miles (16+ km)
Ceiling: at least 12,000 feet AGL
Clouds: sky clear below 12,000 feet AGL
Present Weather: no significant weather observed at this time
KSPG 160453Z 08007KT 10SM CLR 27/23 A3011 RMK AO2 SLP197 T02720233 403280261

Conditions at: KSPG observed 16 August 2018  03:53 UTC
Temperature: 27.2°C (81°F)
Dewpoint: 23.3°C (74°F) [RH = 79%]
Pressure (altimeter): 30.11 inches Hg (1019.7 mb)
[Sea-level pressure: 1019.5 mb]
Winds: from the E (90 degrees) at 7 MPH (6 knots; 3.1 m/s)
Visibility: 10 or more miles (16+ km)
Ceiling: at least 12,000 feet AGL
Clouds: scattered clouds at 6000 feet AGL
Present Weather: no significant weather observed at this time
KSPG 160353Z 09006KT 10SM SCT060 27/23 A3011 RMK AO2 SLP195 T02720233

Conditions at: KSPG observed 16 August 2018  02:53 UTC
Temperature: 27.8°C (82°F)
Dewpoint: 22.2°C (72°F) [RH = 72%]
Pressure (altimeter): 30.11 inches Hg (1019.7 mb)
[Sea-level pressure: 1019.5 mb]
Winds: from the E (100 degrees) at 8 MPH (7 knots; 3.6 m/s)
Visibility: 10 or more miles (16+ km)
Ceiling: at least 12,000 feet AGL
Clouds: few clouds at 6000 feet AGL
Present Weather: no significant weather observed at this time
KSPG 160253Z 10007KT 10SM FEW060 28/22 A3011 RMK AO2 SLP195 T02780222 53016

Conditions at: KSPG observed 16 August 2018  01:53 UTC
Temperature: 28.3°C (83°F)
Dewpoint: 23.3°C (74°F) [RH = 74%]
Pressure (altimeter): 30.09 inches Hg (1019.0 mb)
[Sea-level pressure: 1018.7 mb]
Winds: from the NNE (30 degrees) at 5 MPH (4 knots; 2.1 m/s)
Visibility: 10 or more miles (16+ km)
Ceiling: at least 12,000 feet AGL
Clouds: sky clear below 12,000 feet AGL
Present Weather: no significant weather observed at this time
KSPG 160153Z 03004KT 10SM CLR 28/23 A3009 RMK AO2 SLP187 T02830233

Conditions at: KSPG observed 16 August 2018  00:53 UTC
Temperature: 27.8°C (82°F)
Dewpoint: 23.3°C (74°F) [RH = 77%]
Pressure (altimeter): 30.08 inches Hg (1018.7 mb)
[Sea-level pressure: 1018.5 mb]
Winds: from the N (360 degrees) at 5 MPH (4 knots; 2.1 m/s)
Visibility: 10 or more miles (16+ km)
Ceiling: at least 12,000 feet AGL
Clouds: sky clear below 12,000 feet AGL
Present Weather: no significant weather observed at this time
KSPG 160053Z 36004KT 10SM CLR 28/23 A3008 RMK AO2 SLP185 T02780233

Conditions at: KSPG observed 15 August 2018  23:53 UTC
Temperature: 28.3°C (83°F)
Dewpoint: 23.9°C (75°F) [RH = 77%]
Pressure (altimeter): 30.06 inches Hg (1018.0 mb)
[Sea-level pressure: 1017.9 mb]
Winds: from the N (360 degrees) at 7 MPH (6 knots; 3.1 m/s)
Visibility: 10 or more miles (16+ km)
Ceiling: at least 12,000 feet AGL
Clouds: sky clear below 12,000 feet AGL
Present Weather: no significant weather observed at this time
KSPG 152353Z 36006KT 10SM CLR 28/24 A3006 RMK AO2 SLP179 60000 T02830239 10328 20278 53008

Conditions at: KSPG observed 15 August 2018  22:53 UTC
Temperature: 28.3°C (83°F)
Dewpoint: 22.2°C (72°F) [RH = 70%]
Pressure (altimeter): 30.05 inches Hg (1017.7 mb)
[Sea-level pressure: 1017.4 mb]
Winds: calm
Visibility: 10 or more miles (16+ km)
Ceiling: at least 12,000 feet AGL
Clouds: sky clear below 12,000 feet AGL
Present Weather: no significant weather observed at this time
KSPG 152253Z 00000KT 10SM CLR 28/22 A3005 RMK AO2 SLP174 T02830222

Conditions at: KSPG observed 15 August 2018  22:42 UTC
Temperature: 27.8°C (82°F)
Dewpoint: 22.2°C (72°F) [RH = 72%]
Pressure (altimeter): 30.05 inches Hg (1017.7 mb)
Winds: from the SSW (210 degrees) at 3 MPH (3 knots; 1.6 m/s)
Visibility: 10 or more miles (16+ km)
Ceiling: at least 12,000 feet AGL
Clouds: sky clear below 12,000 feet AGL
Present Weather: no significant weather observed at this time
KSPG 152242Z 21003KT 10SM CLR 28/22 A3005 RMK AO2 T02780222

Conditions at: KSPG observed 15 August 2018  22:25 UTC
Temperature: 27.8°C (82°F)
Dewpoint: 22.2°C (72°F) [RH = 72%]
Pressure (altimeter): 30.05 inches Hg (1017.7 mb)
Winds: from the S (190 degrees) at 10 MPH (9 knots; 4.7 m/s)
Visibility: 10 or more miles (16+ km)
Ceiling: at least 12,000 feet AGL
Clouds: few clouds at 6000 feet AGL
Present Weather: VCTS  (thunderstorm in vicinity)
KSPG 152225Z 19009KT 10SM VCTS FEW060 28/22 A3005 RMK AO2 LTG DSNT N AND NW T02780222

Conditions at: KSPG observed 15 August 2018  22:13 UTC
Temperature: 28.3°C (83°F)
Dewpoint: 22.2°C (72°F) [RH = 70%]
Pressure (altimeter): 30.04 inches Hg (1017.4 mb)
Winds: from the S (170 degrees) at 12 MPH (10 knots; 5.2 m/s)
Visibility: 10 or more miles (16+ km)
Ceiling: at least 12,000 feet AGL
Clouds: few clouds at 6000 feet AGL
Present Weather: no significant weather observed at this time
KSPG 152213Z 17010KT 10SM FEW060 28/22 A3004 RMK AO2 LTG DSNT N AND NW T02830222

Conditions at: KSPG observed 15 August 2018  21:53 UTC
Temperature: 28.3°C (83°F)
Dewpoint: 21.7°C (71°F) [RH = 67%]
Pressure (altimeter): 30.04 inches Hg (1017.4 mb)
[Sea-level pressure: 1017.1 mb]
Winds: from the S (170 degrees) at 13 MPH (11 knots; 5.7 m/s)
Visibility: 10 or more miles (16+ km)
Ceiling: at least 12,000 feet AGL
Clouds: few clouds at 4700 feet AGL
few clouds at 6500 feet AGL
few clouds at 9500 feet AGL
Present Weather: VCTS  (thunderstorm in vicinity)
KSPG 152153Z 17011KT 10SM VCTS FEW047 FEW065 FEW095 28/22 A3004 RMK AO2 PK WND 14030/2118 LTG DSNT NW-NE RAB2057E11 TSB06E21 SLP171 P0000 T02830217

Conditions at: KSPG observed 15 August 2018  21:42 UTC
Temperature: 28.3°C (83°F)
Dewpoint: 21.7°C (71°F) [RH = 67%]
Pressure (altimeter): 30.04 inches Hg (1017.4 mb)
Winds: from the SSE (150 degrees) at 16 MPH (14 knots; 7.3 m/s)
Visibility: 10 or more miles (16+ km)
Ceiling: 4700 feet AGL
Clouds: few clouds at 3700 feet AGL
broken clouds at 4700 feet AGL
broken clouds at 6500 feet AGL
Present Weather: VCTS  (thunderstorm in vicinity)
KSPG 152142Z 15014KT 10SM VCTS FEW037 BKN047 BKN065 28/22 A3004 RMK AO2 PK WND 14030/2118 LTG DSNT ALQDS RAB2057E11 TSB06E21 P0000 T02830217

Conditions at: KSPG observed 15 August 2018  21:25 UTC
Temperature: 28.3°C (83°F)
Dewpoint: 21.1°C (70°F) [RH = 65%]
Pressure (altimeter): 30.04 inches Hg (1017.4 mb)
Winds: from the SSE (150 degrees) at 18 MPH (16 knots; 8.3 m/s)
gusting to 34 MPH (30 knots; 15.6 m/s)
Visibility: 10 or more miles (16+ km)
Ceiling: 4900 feet AGL
Clouds: scattered clouds at 3500 feet AGL
broken clouds at 4900 feet AGL
broken clouds at 6500 feet AGL
Present Weather: no significant weather observed at this time
KSPG 152125Z 15016G30KT 10SM SCT035 BKN049 BKN065 28/21 A3004 RMK AO2 PK WND 14030/2118 LTG DSNT ALQDS RAB2057E11 TSB06E21 P0000 T02830211

Conditions at: KSPG observed 15 August 2018  21:12 UTC
Temperature: 31.1°C (88°F)
Dewpoint: 23.3°C (74°F) [RH = 63%]
Pressure (altimeter): 30.05 inches Hg (1017.7 mb)
Winds: missing
Visibility: 10 or more miles (16+ km)
Ceiling: at least 12,000 feet AGL
Clouds: few clouds at 3900 feet AGL
scattered clouds at 4900 feet AGL
Present Weather: TS  (thunderstorm)
KSPG 152112Z 10SM TS FEW039 SCT049 31/23 A3005 RMK AO2 LTG DSNT ALQDS RAB2057E11 TSB06 P0000 T03110233

Conditions at: KSPG observed 15 August 2018  20:53 UTC
Temperature: 31.7°C (89°F)
Dewpoint: 23.3°C (74°F) [RH = 61%]
Pressure (altimeter): 30.04 inches Hg (1017.4 mb)
[Sea-level pressure: 1017.1 mb]
Winds: from the WSW (240 degrees) at 8 MPH (7 knots; 3.6 m/s)
Visibility: 10 or more miles (16+ km)
Ceiling: at least 12,000 feet AGL
Clouds: sky clear below 12,000 feet AGL
Present Weather: VCTS  (thunderstorm in vicinity)
KSPG 152053Z 24007KT 190V280 10SM VCTS CLR 32/23 A3004 RMK AO2 LTG DSNT ALQDS SLP171 T03170233 56015

Conditions at: KSPG observed 15 August 2018  20:32 UTC
Temperature: 31.7°C (89°F)
Dewpoint: 22.8°C (73°F) [RH = 59%]
Pressure (altimeter): 30.03 inches Hg (1017.0 mb)
Winds: from the WSW (240 degrees) at 9 MPH (8 knots; 4.2 m/s)
Visibility: 10 or more miles (16+ km)
Ceiling: at least 12,000 feet AGL
Clouds: sky clear below 12,000 feet AGL
Present Weather: no significant weather observed at this time
KSPG 152032Z 24008KT 10SM CLR 32/23 A3003 RMK AO2 LTG DSNT NE AND SE T03170228

Conditions at: KSPG observed 15 August 2018  20:08 UTC
Temperature: 31.1°C (88°F)
Dewpoint: 22.8°C (73°F) [RH = 61%]
Pressure (altimeter): 30.05 inches Hg (1017.7 mb)
Winds: from the WSW (240 degrees) at 12 MPH (10 knots; 5.2 m/s)
Visibility: 10 or more miles (16+ km)
Ceiling: at least 12,000 feet AGL
Clouds: few clouds at 6000 feet AGL
Present Weather: VCTS  (thunderstorm in vicinity)
KSPG 152008Z 24010KT 10SM VCTS FEW060 31/23 A3005 RMK AO2 LTG DSNT NE-S T03110228

Conditions at: KSPG observed 15 August 2018  19:53 UTC
Temperature: 31.7°C (89°F)
Dewpoint: 22.8°C (73°F) [RH = 59%]
Pressure (altimeter): 30.05 inches Hg (1017.7 mb)
[Sea-level pressure: 1017.4 mb]
Winds: from the WSW (250 degrees) at 12 MPH (10 knots; 5.2 m/s)
Visibility: 10 or more miles (16+ km)
Ceiling: at least 12,000 feet AGL
Clouds: few clouds at 4100 feet AGL
scattered clouds at 6000 feet AGL
Present Weather: no significant weather observed at this time
KSPG 151953Z 25010KT 10SM FEW041 SCT060 32/23 A3005 RMK AO2 LTG DSNT SE SLP174 T03170228

Conditions at: KSPG observed 15 August 2018  19:38 UTC
Temperature: 32.2°C (90°F)
Dewpoint: 22.8°C (73°F) [RH = 58%]
Pressure (altimeter): 30.06 inches Hg (1018.0 mb)
Winds: from the WSW (240 degrees) at 12 MPH (10 knots; 5.2 m/s)
Visibility: 10 or more miles (16+ km)
Ceiling: at least 12,000 feet AGL
Clouds: few clouds at 4100 feet AGL
Present Weather: VCTS  (thunderstorm in vicinity)
KSPG 151938Z 24010KT 10SM VCTS FEW041 32/23 A3006 RMK AO2 LTG DSNT SE AND S T03220228